Reales Tamarindos Airport


Codes: SEPV/PVO
Name: Reales Tamarindos Airport
City: Portoviejo
Country: Ecuador
Elevation: 130 ft.

Photos at Reales Tamarindos Airport


   Photos courtesy of SpottingLog. You can add your own sightings and photos by signing up for a free trial today.



No photos found.

Weather at Reales Tamarindos Airport


Time (UTC)DescriptionTempratureWindCloud coverageVisibilityPressureHumidity
21-Feb-2024 03:00Moderate Rain25°C2 mph, SW100%5870m1014hPa94%
21-Feb-2024 06:00Heavy Intensity Rain24°C4 mph, W100%2976m1014hPa96%
21-Feb-2024 09:00Moderate Rain24°C0 mph, SE100%10000m1013hPa98%
21-Feb-2024 12:00Moderate Rain24°C2 mph, S100%10000m1015hPa97%
21-Feb-2024 15:00Moderate Rain24°C2 mph, SW100%4896m1016hPa97%
21-Feb-2024 18:00Moderate Rain24°C4 mph, E100%10000m1014hPa95%
21-Feb-2024 21:00Light Rain25°C7 mph, SE100%10000m1012hPa91%
22-Feb-2024 00:00Overcast Clouds24°C7 mph, SE100%10000m1013hPa92%
22-Feb-2024 03:00Overcast Clouds23°C2 mph, S100%10000m1014hPa92%
22-Feb-2024 06:00Overcast Clouds23°C2 mph, SW100%10000m1012hPa91%
22-Feb-2024 09:00Overcast Clouds24°C0 mph, SE100%10000m1011hPa89%
22-Feb-2024 12:00Overcast Clouds23°C2 mph, E100%10000m1013hPa91%
22-Feb-2024 15:00Scattered Clouds27°C2 mph, E25%10000m1014hPa76%
22-Feb-2024 18:00Scattered Clouds29°C4 mph, NW33%10000m1011hPa72%
22-Feb-2024 21:00Light Rain26°C7 mph, W98%10000m1009hPa85%
23-Feb-2024 00:00Light Rain25°C2 mph, NW99%10000m1010hPa88%
23-Feb-2024 03:00Light Rain25°C2 mph, NW100%10000m1012hPa88%
23-Feb-2024 06:00Light Rain25°C0 mph, S98%10000m1011hPa90%
23-Feb-2024 09:00Light Rain24°C2 mph, SE90%10000m1010hPa90%
23-Feb-2024 12:00Light Rain24°C2 mph, SE81%10000m1011hPa91%
23-Feb-2024 15:00Light Rain27°C2 mph, S61%10000m1012hPa79%
23-Feb-2024 18:00Light Rain30°C7 mph, S60%10000m1009hPa68%
23-Feb-2024 21:00Light Rain29°C9 mph, W86%10000m1007hPa73%
24-Feb-2024 00:00Light Rain26°C4 mph, W93%10000m1009hPa84%
24-Feb-2024 03:00Light Rain25°C2 mph, SW99%10000m1012hPa85%
24-Feb-2024 06:00Light Rain24°C2 mph, SW90%10000m1011hPa89%
24-Feb-2024 09:00Broken Clouds24°C2 mph, SE64%10000m1010hPa89%
24-Feb-2024 12:00Broken Clouds24°C4 mph, E79%10000m1012hPa88%
24-Feb-2024 15:00Overcast Clouds27°C2 mph, NE89%10000m1013hPa76%
24-Feb-2024 18:00Light Rain28°C9 mph, NW90%10000m1011hPa75%
24-Feb-2024 21:00Light Rain27°C11 mph, NW81%10000m1009hPa78%
25-Feb-2024 00:00Light Rain25°C7 mph, NW70%10000m1011hPa88%
25-Feb-2024 03:00Overcast Clouds24°C4 mph, NW93%10000m1013hPa91%
25-Feb-2024 06:00Broken Clouds24°C2 mph, NW67%10000m1013hPa92%
25-Feb-2024 09:00Scattered Clouds24°C0 mph, SE49%10000m1012hPa92%
25-Feb-2024 12:00Broken Clouds24°C2 mph, SE71%10000m1013hPa92%
25-Feb-2024 15:00Overcast Clouds28°C2 mph, SE95%10000m1014hPa73%
25-Feb-2024 18:00Overcast Clouds30°C7 mph, NW87%10000m1011hPa65%
25-Feb-2024 21:00Light Rain28°C9 mph, NW99%10000m1009hPa73%
26-Feb-2024 00:00Light Rain25°C4 mph, NW89%10000m1011hPa84%